Auberry, California
Current Conditions -  °F | °C
As of 1:53 PM on Wednesday 22 Oct 2014 (Local Time) from KFAT Reporting Station
Broken Clouds Broken Clouds  
Wind Chill: 73°   Ceiling: 25000
Heat Index: 73°   Visibility: 10mi
Dew Point: 40°   Wind: 3mph
Humidity: 30%   Direction: NA
Pressure: 30.03"   Gusts: NA
Location:  37.08°N, 119.49°W
Report Text: KFAT 222053Z VRB03KT 10SM FEW200 BKN250 23/04 A3003 RMK AO2 SLP166 MTNS OBSC HZ DSNT N-E-S T02280044 58013
Loading
Personal Weather Stations






























Interactive Weather Map
Tropical Storm Tracking
New forecast layout! Learn more

10-Day Weather Forecast

Advertisements
Track Severe Weather on mobile